createdAt,value
2018-11-13T00:01:23.599Z,12.10
2018-11-13T00:03:57.907Z,12.10
2018-11-13T00:06:32.275Z,12.10
2018-11-13T00:09:07.963Z,12.10
2018-11-13T00:11:42.119Z,12.10
2018-11-13T00:14:16.502Z,12.10
2018-11-13T00:16:50.767Z,12.20
2018-11-13T00:19:25.122Z,12.10
2018-11-13T00:21:59.282Z,12.10
2018-11-13T00:24:33.608Z,12.10
2018-11-13T00:27:07.930Z,12.00
2018-11-13T00:29:42.154Z,12.00
2018-11-13T00:32:16.430Z,12.10
2018-11-13T00:34:50.781Z,12.00
2018-11-13T00:37:25.213Z,12.10
2018-11-13T00:39:59.486Z,12.10
2018-11-13T00:42:33.833Z,12.10
2018-11-13T00:45:08.374Z,12.10
2018-11-13T00:47:42.706Z,12.10
2018-11-13T00:50:18.241Z,12.10
2018-11-13T00:52:52.547Z,12.10
2018-11-13T00:55:26.886Z,12.10
2018-11-13T00:58:01.102Z,12.10
2018-11-13T01:00:35.292Z,12.00
2018-11-13T01:03:09.494Z,12.00
2018-11-13T01:05:43.852Z,12.00
2018-11-13T01:08:18.090Z,12.00
2018-11-13T01:10:52.365Z,12.10
2018-11-13T01:13:26.526Z,12.00
2018-11-13T01:16:00.815Z,12.10
2018-11-13T01:18:35.098Z,12.00
2018-11-13T01:21:09.418Z,12.00
2018-11-13T01:23:43.592Z,12.00
2018-11-13T01:26:17.913Z,12.00
2018-11-13T01:28:52.163Z,12.00
2018-11-13T01:31:26.454Z,12.10
2018-11-13T01:34:00.722Z,12.10
2018-11-13T01:36:35.010Z,12.10
2018-11-13T01:39:10.370Z,12.00
2018-11-13T01:41:44.754Z,12.00
2018-11-13T01:44:19.186Z,12.00
2018-11-13T01:46:53.513Z,12.00
2018-11-13T01:49:27.848Z,12.00
2018-11-13T01:52:02.151Z,12.10
2018-11-13T01:54:36.794Z,12.00
2018-11-13T01:57:11.164Z,12.10
2018-11-13T01:59:45.430Z,12.00
2018-11-13T02:02:19.602Z,12.10
2018-11-13T02:04:53.921Z,12.00
2018-11-13T02:07:28.050Z,12.10
2018-11-13T02:10:02.333Z,12.00
2018-11-13T02:12:36.518Z,12.00
2018-11-13T02:15:10.813Z,11.90
2018-11-13T02:17:45.051Z,11.90
2018-11-13T02:20:20.593Z,11.80
2018-11-13T02:22:54.770Z,11.70
2018-11-13T02:25:29.135Z,11.80
2018-11-13T02:28:03.433Z,11.80
2018-11-13T02:30:37.750Z,11.70
2018-11-13T02:33:12.046Z,11.80
2018-11-13T02:35:46.442Z,11.70
2018-11-13T02:38:20.731Z,11.80
2018-11-13T02:40:55.050Z,11.80
2018-11-13T02:43:29.315Z,11.70
2018-11-13T02:46:03.724Z,11.70
2018-11-13T02:48:38.010Z,11.70
2018-11-13T02:51:12.326Z,11.70
2018-11-13T02:53:46.666Z,11.60
2018-11-13T02:56:21.086Z,11.70
2018-11-13T02:58:55.338Z,11.60
2018-11-13T03:01:29.639Z,11.70
2018-11-13T03:04:03.946Z,11.70
2018-11-13T03:06:38.253Z,11.70
2018-11-13T03:09:12.528Z,11.70
2018-11-13T03:11:46.989Z,11.60
2018-11-13T03:14:21.210Z,11.60
2018-11-13T03:16:55.491Z,11.60
2018-11-13T03:19:29.873Z,11.60
2018-11-13T03:22:04.381Z,11.50
2018-11-13T03:24:38.798Z,11.50
2018-11-13T03:27:13.033Z,11.50
2018-11-13T03:29:47.459Z,11.60
2018-11-13T03:32:21.894Z,11.70
2018-11-13T03:34:56.273Z,11.70
2018-11-13T03:37:30.474Z,11.80
2018-11-13T03:40:05.806Z,11.80
2018-11-13T03:42:40.305Z,11.80
2018-11-13T03:45:14.820Z,11.80
2018-11-13T03:47:49.044Z,11.80
2018-11-13T03:50:23.346Z,11.80
2018-11-13T03:52:57.538Z,11.80
2018-11-13T03:55:31.821Z,11.80
2018-11-13T03:58:06.510Z,11.90
2018-11-13T04:00:40.698Z,11.90
2018-11-13T04:03:15.210Z,11.90
2018-11-13T04:05:49.539Z,11.90
2018-11-13T04:08:23.837Z,11.80
2018-11-13T04:10:58.276Z,11.90
2018-11-13T04:13:32.622Z,11.90
2018-11-13T04:16:06.902Z,11.90
2018-11-13T04:18:41.205Z,11.90
2018-11-13T04:21:15.626Z,11.90
2018-11-13T04:23:50.075Z,11.90
2018-11-13T04:26:24.622Z,11.90
2018-11-13T04:28:58.839Z,11.90
2018-11-13T04:31:33.150Z,11.90
2018-11-13T04:34:07.422Z,11.90
2018-11-13T04:36:41.831Z,11.90
2018-11-13T04:39:16.030Z,11.90
2018-11-13T04:41:50.235Z,11.90
2018-11-13T04:44:24.666Z,11.90
2018-11-13T04:46:58.970Z,11.90
2018-11-13T04:49:33.395Z,11.90
2018-11-13T04:52:07.906Z,11.80
2018-11-13T04:54:42.193Z,11.80
2018-11-13T04:57:16.573Z,11.80
2018-11-13T04:59:50.950Z,11.80
2018-11-13T05:02:25.331Z,11.80
2018-11-13T05:04:59.634Z,11.80
2018-11-13T05:07:33.934Z,11.80
2018-11-13T05:10:10.434Z,11.80
2018-11-13T05:12:45.332Z,11.80
2018-11-13T05:15:19.718Z,11.80
2018-11-13T05:17:54.049Z,11.90
2018-11-13T05:20:28.335Z,11.80
2018-11-13T05:23:02.701Z,11.80
2018-11-13T05:25:37.031Z,11.90
2018-11-13T05:28:11.193Z,11.80
2018-11-13T05:30:45.364Z,11.80
2018-11-13T05:33:19.731Z,11.80
2018-11-13T05:35:54.074Z,11.80
2018-11-13T05:38:28.501Z,11.90
2018-11-13T05:41:02.874Z,11.70
2018-11-13T05:43:37.057Z,11.80
2018-11-13T05:46:11.462Z,11.80
2018-11-13T05:48:45.781Z,11.70
2018-11-13T05:51:20.090Z,11.70
2018-11-13T05:53:54.462Z,11.70
2018-11-13T05:56:28.754Z,11.70
2018-11-13T05:59:03.094Z,11.70
2018-11-13T06:01:37.446Z,11.70
2018-11-13T06:04:11.722Z,11.70
2018-11-13T06:06:46.018Z,11.70
2018-11-13T06:09:20.294Z,11.70
2018-11-13T06:11:54.726Z,11.70
2018-11-13T06:14:29.061Z,11.60
2018-11-13T06:17:03.261Z,11.60
2018-11-13T06:19:37.653Z,11.60
2018-11-13T06:22:11.986Z,11.70
2018-11-13T06:24:46.226Z,11.70
2018-11-13T06:27:20.839Z,11.70
2018-11-13T06:29:55.161Z,11.70
2018-11-13T06:32:29.634Z,11.70
2018-11-13T06:35:04.167Z,11.70
2018-11-13T06:37:38.830Z,11.70
2018-11-13T06:40:13.174Z,11.70
2018-11-13T06:42:47.402Z,11.70
2018-11-13T06:45:22.617Z,11.70
2018-11-13T06:47:56.930Z,11.80
2018-11-13T06:50:31.306Z,11.80
2018-11-13T06:53:05.648Z,11.70
2018-11-13T06:55:42.343Z,11.70
2018-11-13T06:58:16.514Z,11.70
2018-11-13T07:00:50.918Z,11.70
2018-11-13T07:03:25.229Z,11.70
2018-11-13T07:05:59.558Z,11.70
2018-11-13T07:08:33.735Z,11.70
2018-11-13T07:11:08.154Z,11.70
2018-11-13T07:13:42.499Z,11.70
2018-11-13T07:16:16.748Z,11.70
2018-11-13T07:18:50.999Z,11.70
2018-11-13T07:21:25.305Z,11.70
2018-11-13T07:23:59.734Z,11.70
2018-11-13T07:26:34.070Z,11.60
2018-11-13T07:29:08.489Z,11.70
2018-11-13T07:31:42.709Z,11.70
2018-11-13T07:34:17.060Z,11.70
2018-11-13T07:36:52.258Z,11.70
2018-11-13T07:39:26.765Z,11.70
2018-11-13T07:42:00.954Z,11.70
2018-11-13T07:44:35.363Z,11.70
2018-11-13T07:47:09.769Z,11.70
2018-11-13T07:49:43.900Z,11.70
2018-11-13T07:52:18.122Z,11.70
2018-11-13T07:54:52.526Z,11.70
2018-11-13T07:57:26.846Z,11.60
2018-11-13T08:00:01.258Z,11.60
2018-11-13T08:02:35.630Z,11.60
2018-11-13T08:05:10.042Z,11.60
2018-11-13T08:07:44.274Z,11.60
2018-11-13T08:10:18.582Z,11.60
2018-11-13T08:12:53.075Z,11.60
2018-11-13T08:15:27.387Z,11.60
2018-11-13T08:18:01.638Z,11.70
2018-11-13T08:20:35.962Z,11.70
2018-11-13T08:23:10.382Z,11.70
2018-11-13T08:25:44.578Z,11.70
2018-11-13T08:28:18.849Z,11.80
2018-11-13T08:30:52.973Z,11.80
2018-11-13T08:33:27.243Z,11.90
2018-11-13T08:36:01.493Z,11.90
2018-11-13T08:38:35.642Z,11.90
2018-11-13T08:41:09.942Z,12.00
2018-11-13T08:43:44.402Z,11.90
2018-11-13T08:46:18.525Z,12.00
2018-11-13T08:48:52.806Z,12.00
2018-11-13T08:51:27.039Z,12.00
2018-11-13T08:54:01.439Z,12.10
2018-11-13T08:56:35.690Z,12.10
2018-11-13T08:59:10.013Z,12.20
2018-11-13T09:01:44.218Z,12.20
2018-11-13T09:04:18.514Z,12.30
2018-11-13T09:06:52.802Z,12.30
2018-11-13T09:09:27.118Z,12.30
2018-11-13T09:12:01.529Z,12.30
2018-11-13T09:14:36.063Z,12.40
2018-11-13T09:17:10.738Z,12.50
2018-11-13T09:19:45.126Z,12.50
2018-11-13T09:22:19.244Z,12.60
2018-11-13T09:24:53.578Z,12.60
2018-11-13T09:27:27.862Z,12.60
2018-11-13T09:30:02.577Z,12.60
2018-11-13T09:32:36.954Z,12.70
2018-11-13T09:35:12.549Z,12.70
2018-11-13T09:37:46.873Z,12.80
2018-11-13T09:40:21.350Z,12.90
2018-11-13T09:42:55.506Z,13.00
2018-11-13T09:45:29.940Z,13.10
2018-11-13T09:48:04.439Z,13.10
2018-11-13T09:50:38.691Z,13.10
2018-11-13T09:53:12.967Z,13.10
2018-11-13T09:55:47.234Z,13.00
2018-11-13T09:58:21.418Z,13.00
2018-11-13T10:00:55.949Z,13.00
2018-11-13T10:03:30.886Z,13.00
2018-11-13T10:06:04.682Z,13.10
2018-11-13T10:08:38.843Z,12.90
2018-11-13T10:11:13.165Z,13.00
2018-11-13T10:13:47.426Z,13.00
2018-11-13T10:16:21.818Z,13.00
2018-11-13T10:18:55.958Z,12.90
2018-11-13T10:21:30.175Z,12.90
2018-11-13T10:24:05.014Z,12.80
2018-11-13T10:26:39.348Z,12.80
2018-11-13T10:29:13.650Z,12.70
2018-11-13T10:31:48.034Z,12.70
2018-11-13T10:34:22.278Z,12.70
2018-11-13T10:36:56.551Z,12.60
2018-11-13T10:39:30.742Z,12.70
2018-11-13T10:42:05.442Z,12.60
2018-11-13T10:44:39.698Z,12.60
2018-11-13T10:47:13.883Z,12.60
2018-11-13T10:49:48.050Z,12.70
2018-11-13T10:52:22.427Z,12.70
2018-11-13T10:54:56.830Z,12.80
2018-11-13T10:57:31.142Z,13.00
2018-11-13T11:00:12.335Z,13.10
2018-11-13T11:02:52.588Z,13.20
2018-11-13T11:05:27.966Z,13.30
2018-11-13T11:08:02.333Z,13.30
2018-11-13T11:10:36.605Z,13.20
2018-11-13T11:13:11.042Z,13.20
2018-11-13T11:15:45.133Z,13.20
2018-11-13T11:18:19.367Z,13.10
2018-11-13T11:20:53.558Z,13.20
2018-11-13T11:23:27.821Z,13.20
2018-11-13T11:26:02.046Z,13.20
2018-11-13T11:28:36.310Z,13.20
2018-11-13T11:31:10.702Z,13.20
2018-11-13T11:33:44.922Z,13.30
2018-11-13T11:36:19.326Z,13.20
2018-11-13T11:38:53.801Z,13.10
2018-11-13T11:41:27.886Z,13.10
2018-11-13T11:44:02.133Z,13.00
2018-11-13T11:46:36.542Z,13.00
2018-11-13T11:49:10.870Z,13.00
2018-11-13T11:51:45.150Z,13.00
2018-11-13T11:54:19.428Z,13.00
2018-11-13T11:56:53.698Z,13.00
2018-11-13T11:59:28.127Z,13.10
2018-11-13T12:02:02.459Z,13.30
2018-11-13T12:04:36.637Z,13.30
2018-11-13T12:07:10.962Z,13.30
2018-11-13T12:09:45.249Z,13.30
2018-11-13T12:12:19.668Z,13.30
2018-11-13T12:14:53.767Z,13.20
2018-11-13T12:17:28.153Z,13.10
2018-11-13T12:20:02.482Z,13.10
2018-11-13T12:22:36.778Z,13.10
2018-11-13T12:25:14.514Z,13.00
2018-11-13T12:27:48.799Z,13.00
2018-11-13T12:30:24.066Z,12.90
2018-11-13T12:32:58.316Z,13.00
2018-11-13T12:35:32.670Z,13.00
2018-11-13T12:38:06.961Z,13.10
2018-11-13T12:40:41.625Z,13.00
2018-11-13T12:43:15.514Z,13.00
2018-11-13T12:45:49.682Z,12.90
2018-11-13T12:48:24.021Z,12.90
2018-11-13T12:51:02.899Z,12.90
2018-11-13T12:53:37.195Z,12.90
2018-11-13T12:56:11.573Z,12.80
2018-11-13T12:58:45.773Z,12.80
2018-11-13T13:01:20.130Z,12.70
2018-11-13T13:03:54.523Z,12.70
2018-11-13T13:06:28.818Z,12.80
2018-11-13T13:09:03.354Z,12.90
2018-11-13T13:11:37.654Z,13.00
2018-11-13T13:14:14.317Z,13.00
2018-11-13T13:16:48.660Z,13.10
2018-11-13T13:19:22.916Z,13.20
2018-11-13T13:21:57.356Z,13.20
2018-11-13T13:24:31.662Z,13.20
2018-11-13T13:27:05.974Z,13.30
2018-11-13T13:29:41.054Z,13.20
2018-11-13T13:32:15.350Z,13.30
2018-11-13T13:34:49.749Z,13.30
2018-11-13T13:37:24.155Z,13.20
2018-11-13T13:39:58.461Z,13.20
2018-11-13T13:42:32.852Z,13.30
2018-11-13T13:45:07.182Z,13.20
2018-11-13T13:47:41.498Z,13.10
2018-11-13T13:50:15.777Z,13.10
2018-11-13T13:52:50.017Z,13.00
2018-11-13T13:55:26.067Z,13.10
2018-11-13T13:58:00.370Z,13.10
2018-11-13T14:00:34.737Z,13.10
2018-11-13T14:03:09.865Z,12.90
2018-11-13T14:05:44.686Z,12.90
2018-11-13T14:08:19.202Z,12.80
2018-11-13T14:10:53.490Z,12.70
2018-11-13T14:13:27.808Z,12.70
2018-11-13T14:16:02.195Z,12.70
2018-11-13T14:18:36.402Z,12.70
2018-11-13T14:21:10.766Z,12.70
2018-11-13T14:23:45.199Z,12.60
2018-11-13T14:26:19.434Z,12.60
2018-11-13T14:28:53.941Z,12.60
2018-11-13T14:31:28.179Z,12.50
2018-11-13T14:34:02.631Z,12.50
2018-11-13T14:36:37.042Z,12.50
2018-11-13T14:39:11.830Z,12.50
2018-11-13T14:41:46.078Z,12.50
2018-11-13T14:44:20.386Z,12.60
2018-11-13T14:46:54.721Z,12.60
2018-11-13T14:49:29.140Z,12.60
2018-11-13T14:52:03.531Z,12.50
2018-11-13T14:54:37.794Z,12.50
2018-11-13T14:57:12.029Z,12.50
2018-11-13T14:59:46.287Z,12.50
2018-11-13T15:02:20.609Z,12.40
2018-11-13T15:04:54.907Z,12.40
2018-11-13T15:07:29.266Z,12.40
2018-11-13T15:10:03.750Z,12.30
2018-11-13T15:12:38.159Z,12.30
2018-11-13T15:15:12.657Z,12.30
2018-11-13T15:17:46.862Z,12.20
2018-11-13T15:20:21.202Z,12.20
2018-11-13T15:22:55.470Z,12.20
2018-11-13T15:25:29.818Z,12.20
2018-11-13T15:28:04.552Z,12.10
2018-11-13T15:30:40.436Z,12.10
2018-11-13T15:33:16.027Z,12.00
2018-11-13T15:35:50.246Z,12.00
2018-11-13T15:38:24.497Z,12.00
2018-11-13T15:40:58.825Z,12.00
2018-11-13T15:43:33.125Z,12.00
2018-11-13T15:46:07.286Z,11.90
2018-11-13T15:48:41.572Z,11.90
2018-11-13T15:51:16.086Z,11.90
2018-11-13T15:53:50.351Z,11.90
2018-11-13T15:56:24.493Z,11.90
2018-11-13T15:58:58.765Z,11.90
2018-11-13T16:01:33.002Z,11.80
2018-11-13T16:04:07.286Z,11.90
2018-11-13T16:06:41.587Z,11.90
2018-11-13T16:09:15.779Z,11.90
2018-11-13T16:11:49.897Z,11.80
2018-11-13T16:14:24.202Z,11.80
2018-11-13T16:16:58.520Z,11.80
2018-11-13T16:19:32.698Z,11.70
2018-11-13T16:22:07.133Z,11.70
2018-11-13T16:24:41.382Z,11.70
2018-11-13T16:27:15.786Z,11.60
2018-11-13T16:29:50.159Z,11.60
2018-11-13T16:32:24.601Z,11.60
2018-11-13T16:34:58.879Z,11.70
2018-11-13T16:37:33.051Z,11.70
2018-11-13T16:40:08.706Z,11.70
2018-11-13T16:42:43.095Z,11.70
2018-11-13T16:45:18.763Z,11.60
2018-11-13T16:47:53.264Z,11.70
2018-11-13T16:50:28.690Z,11.70
2018-11-13T16:53:02.987Z,11.70
2018-11-13T16:55:42.469Z,11.70
2018-11-13T16:58:17.092Z,11.70
2018-11-13T17:00:51.417Z,11.60
2018-11-13T17:03:25.597Z,11.70
2018-11-13T17:10:11.125Z,11.70
2018-11-13T17:12:45.751Z,11.70
2018-11-13T17:15:21.290Z,11.60
2018-11-13T17:17:56.729Z,11.60
2018-11-13T17:20:30.908Z,11.60
2018-11-13T17:23:05.184Z,11.50
2018-11-13T17:25:39.796Z,11.50
2018-11-13T17:28:13.991Z,11.50
2018-11-13T17:30:48.269Z,11.50
2018-11-13T17:33:22.478Z,11.50
2018-11-13T17:35:56.806Z,11.50
2018-11-13T17:38:31.003Z,11.50
2018-11-13T17:41:05.574Z,11.50
2018-11-13T17:43:39.778Z,11.50
2018-11-13T17:46:14.025Z,11.50
2018-11-13T17:48:48.238Z,11.50
2018-11-13T17:51:22.499Z,11.50
2018-11-13T17:53:56.885Z,11.40
2018-11-13T17:56:31.107Z,11.40
2018-11-13T17:59:05.605Z,11.40
2018-11-13T18:01:41.199Z,11.40
2018-11-13T18:04:17.091Z,11.40
2018-11-13T18:06:51.382Z,11.40
2018-11-13T18:09:25.810Z,11.40
2018-11-13T18:12:00.234Z,11.30
2018-11-13T18:14:34.464Z,11.30
2018-11-13T18:17:08.614Z,11.30
2018-11-13T18:19:42.958Z,11.30
2018-11-13T18:22:17.209Z,11.30
2018-11-13T18:24:51.429Z,11.20
2018-11-13T18:27:25.690Z,11.20
2018-11-13T18:29:59.982Z,11.20
2018-11-13T18:32:34.270Z,11.20
2018-11-13T18:35:09.930Z,11.20
2018-11-13T18:37:44.815Z,11.20
2018-11-13T18:40:19.938Z,11.20
2018-11-13T18:43:01.522Z,11.20
2018-11-13T18:45:37.074Z,11.20
2018-11-13T18:48:11.296Z,11.20
2018-11-13T18:50:46.106Z,11.20
2018-11-13T18:53:20.402Z,11.10
2018-11-13T18:55:54.590Z,11.00
2018-11-13T18:58:28.879Z,11.10
2018-11-13T19:01:03.222Z,11.00
2018-11-13T19:03:37.438Z,11.10
2018-11-13T19:06:11.733Z,11.00
2018-11-13T19:08:46.174Z,11.00
2018-11-13T19:11:20.432Z,11.00
2018-11-13T19:13:54.763Z,11.00
2018-11-13T19:16:28.962Z,11.00
2018-11-13T19:19:03.614Z,10.90
2018-11-13T19:21:37.921Z,10.90
2018-11-13T19:24:12.310Z,11.00
2018-11-13T19:26:46.646Z,11.00
2018-11-13T19:29:20.865Z,10.90
2018-11-13T19:31:55.105Z,10.90
2018-11-13T19:34:29.627Z,10.90
2018-11-13T19:37:03.975Z,10.90
2018-11-13T19:39:38.154Z,10.90
2018-11-13T19:42:12.330Z,10.90
2018-11-13T19:44:46.575Z,10.80
2018-11-13T19:47:20.762Z,10.80
2018-11-13T19:49:55.084Z,10.80
2018-11-13T19:52:29.342Z,10.80
2018-11-13T19:55:04.066Z,10.80
2018-11-13T19:57:38.553Z,10.70
2018-11-13T20:00:17.867Z,10.80
2018-11-13T20:02:53.055Z,10.80
2018-11-13T20:05:27.999Z,10.70
2018-11-13T20:08:02.278Z,10.70
2018-11-13T20:10:37.255Z,10.60
2018-11-13T20:13:11.754Z,10.70
2018-11-13T20:15:46.154Z,10.70
2018-11-13T20:18:20.468Z,10.70
2018-11-13T20:20:54.769Z,10.70
2018-11-13T20:23:29.046Z,10.70
2018-11-13T20:26:03.401Z,10.70
2018-11-13T20:28:37.587Z,10.70
2018-11-13T20:31:12.076Z,10.70
2018-11-13T20:33:46.198Z,10.50
2018-11-13T20:36:20.362Z,10.70
2018-11-13T20:38:54.638Z,10.60
2018-11-13T20:41:28.941Z,10.70
2018-11-13T20:44:03.358Z,10.60
2018-11-13T20:46:37.682Z,10.60
2018-11-13T20:49:11.818Z,10.50
2018-11-13T20:51:46.026Z,10.60
2018-11-13T20:54:20.386Z,10.50
2018-11-13T20:56:54.703Z,10.60
2018-11-13T20:59:28.958Z,10.50
2018-11-13T21:02:03.550Z,10.50
2018-11-13T21:04:37.750Z,10.40
2018-11-13T21:07:12.022Z,10.50
2018-11-13T21:09:46.319Z,10.50
2018-11-13T21:12:20.634Z,10.50
2018-11-13T21:14:55.035Z,10.50
2018-11-13T21:17:29.431Z,10.50
2018-11-13T21:20:03.881Z,10.50
2018-11-13T21:22:38.240Z,10.50
2018-11-13T21:25:13.903Z,10.50
2018-11-13T21:27:48.306Z,10.40
2018-11-13T21:30:22.933Z,10.50
2018-11-13T21:32:57.198Z,10.40
2018-11-13T21:35:31.643Z,10.40
2018-11-13T21:38:06.177Z,10.40
2018-11-13T21:40:40.502Z,10.40
2018-11-13T21:43:14.851Z,10.30
2018-11-13T21:45:49.113Z,10.40
2018-11-13T21:48:23.476Z,10.40
2018-11-13T21:50:57.754Z,10.40
2018-11-13T21:53:32.074Z,10.30
2018-11-13T21:56:06.370Z,10.20
2018-11-13T21:58:40.594Z,10.30
2018-11-13T22:01:14.954Z,10.30
2018-11-13T22:03:49.273Z,10.30
2018-11-13T22:06:23.646Z,10.30
2018-11-13T22:08:57.994Z,10.30
2018-11-13T22:11:32.346Z,10.30
2018-11-13T22:14:06.750Z,10.30
2018-11-13T22:16:41.160Z,10.30
2018-11-13T22:19:15.273Z,10.20
2018-11-13T22:21:49.530Z,10.30
2018-11-13T22:24:23.874Z,10.30
2018-11-13T22:26:58.198Z,10.20
2018-11-13T22:29:32.522Z,10.20
2018-11-13T22:32:06.822Z,10.20
2018-11-13T22:34:41.138Z,10.20
2018-11-13T22:37:15.569Z,10.20
2018-11-13T22:39:49.905Z,10.20
2018-11-13T22:42:24.197Z,10.20
2018-11-13T22:44:58.593Z,10.20
2018-11-13T22:47:33.038Z,10.10
2018-11-13T22:50:15.422Z,10.10
2018-11-13T22:52:49.990Z,10.10
2018-11-13T22:55:24.121Z,10.20
2018-11-13T22:57:59.593Z,10.20
2018-11-13T23:00:48.493Z,10.20
2018-11-13T23:03:22.222Z,10.10
2018-11-13T23:05:56.567Z,10.10
2018-11-13T23:08:30.713Z,10.10
2018-11-13T23:11:10.786Z,10.10
2018-11-13T23:13:45.302Z,10.10
2018-11-13T23:16:19.597Z,10.00
2018-11-13T23:18:53.958Z,10.00
2018-11-13T23:21:28.310Z,10.00
2018-11-13T23:24:02.726Z,10.00
2018-11-13T23:26:37.093Z,10.00
2018-11-13T23:29:11.378Z,10.00
2018-11-13T23:31:46.313Z,10.00
2018-11-13T23:34:20.054Z,9.90
2018-11-13T23:36:54.242Z,9.90
2018-11-13T23:39:28.546Z,9.90
2018-11-13T23:42:02.967Z,9.90
2018-11-13T23:44:37.314Z,9.90
2018-11-13T23:47:11.599Z,9.90
2018-11-13T23:49:45.816Z,9.80
2018-11-13T23:52:20.195Z,9.80
2018-11-13T23:54:54.507Z,9.80
2018-11-13T23:57:28.790Z,9.80
